Time;durP1;ratioP1;P1;durP2;ratioP2;P2;SDS_P1;SDS_P2;PMS_P1;PMS_P2;Temp;Humidity;BMP_temperature;BMP_pressure;BME280_temperature;BME280_humidity;BME280_pressure;Samples;Min_cycle;Max_cycle;Signal;HPM_P1;HPM_P2
2023/07/21 00:01:51;;;;;;;;;;;;;;;;;;5006957;28;19922;-89
2023/07/21 00:04:24;;;;;;;;;;;;;;;;;;4990264;28;19909;-90
2023/07/21 00:06:50;;;;;;;;;;;;;;;;;;4991122;28;19921;-90
2023/07/21 00:09:17;;;;;;;;;;;;;;;;;;4993318;28;20343;-90
2023/07/21 00:11:43;;;;;;;;;;;;;;;;;;4990546;28;19922;-90
2023/07/21 00:14:10;;;;;;;;;;;;;;;;;;5006032;28;19928;-89
2023/07/21 00:16:37;;;;;;;;;;;;;;;;;;4989737;28;19921;-90
2023/07/21 00:19:07;;;;;;;;;;;;;;;;;;5005992;28;19926;-90
2023/07/21 00:21:33;;;;;;;;;;;;;;;;;;4989830;28;19922;-90
2023/07/21 00:23:59;;;;;;;;;;;;;;;;;;4987936;28;19925;-89
2023/07/21 00:26:24;;;;;;;;;;;;;;;;;;4989891;28;19925;-90
2023/07/21 00:28:50;;;;;;;;;;;;;;;;;;4989524;28;19922;-86
2023/07/21 00:31:16;;;;;;;;;;;;;;;;;;4988773;28;20303;-90
2023/07/21 00:33:42;;;;;;;;;;;;;;;;;;4988990;28;19928;-90
2023/07/21 00:36:08;;;;;;;;;;;;;;;;;;4988356;28;19929;-91
2023/07/21 00:38:34;;;;;;;;;;;;;;;;;;4989867;28;19926;-90
2023/07/21 00:41:00;;;;;;;;;;;;;;;;;;4990056;28;19929;-90
2023/07/21 00:43:26;;;;;;;;;;;;;;;;;;4990196;28;19975;-90
2023/07/21 00:45:53;;;;;;;;;;;;;;;;;;4992130;28;20020;-90
2023/07/21 00:48:19;;;;;;;;;;;;;;;;;;4989027;28;20430;-89
2023/07/21 00:50:45;;;;;;;;;;;;;;;;;;4989382;28;19926;-90
2023/07/21 00:53:11;;;;;;;;;;;;;;;;;;4988939;28;20415;-89
2023/07/21 00:55:38;;;;;;;;;;;;;;;;;;4988655;28;19929;-89
2023/07/21 00:58:10;;;;;;;;;;;;;;;;;;5005330;28;19930;-89
2023/07/21 01:00:36;;;;;;;;;;;;;;;;;;4989432;28;19925;-91
2023/07/21 01:03:11;;;;;;;;;;;;;;;;;;4988361;28;19945;-91
2023/07/21 01:05:38;;;;;;;;;;;;;;;;;;4989693;28;19928;-89
2023/07/21 01:08:07;;;;;;;;;;;;;;;;;;4989442;28;19981;-90
2023/07/21 01:10:51;;;;;;;;;;;;;;;;;;5002023;28;19922;-89
2023/07/21 01:13:18;;;;;;;;;;;;;;;;;;4988961;28;20014;-90
2023/07/21 01:15:44;;;;;;;;;;;;;;;;;;4991302;28;19928;-89
2023/07/21 01:18:10;;;;;;;;;;;;;;;;;;4992491;28;19930;-91
2023/07/21 01:20:36;;;;;;;;;;;;;;;;;;5008255;28;19929;-86
2023/07/21 01:23:06;;;;;;;;;;;;;;;;;;5007295;28;20344;-90
2023/07/21 01:25:32;;;;;;;;;;;;;;;;;;4992483;28;19906;-90
2023/07/21 01:27:58;;;;;;;;;;;;;;;;;;4992780;28;20444;-90
2023/07/21 01:30:24;;;;;;;;;;;;;;;;;;5008158;28;20384;-90
2023/07/21 01:32:50;;;;;;;;;;;;;;;;;;4991170;28;19929;-90
2023/07/21 01:35:16;;;;;;;;;;;;;;;;;;4990703;28;20016;-90
2023/07/21 01:37:42;;;;;;;;;;;;;;;;;;4990399;28;19989;-89
2023/07/21 01:40:08;;;;;;;;;;;;;;;;;;4991010;28;19969;-90
2023/07/21 01:42:34;;;;;;;;;;;;;;;;;;4991217;28;19922;-90
2023/07/21 01:45:02;;;;;;;;;;;;;;;;;;4989563;28;19929;-89
2023/07/21 01:47:31;;;;;;;;;;;;;;;;;;4990965;28;19922;-89
2023/07/21 01:49:58;;;;;;;;;;;;;;;;;;5006105;28;19929;-90
2023/07/21 01:52:24;;;;;;;;;;;;;;;;;;4990594;28;20012;-89
2023/07/21 01:54:51;;;;;;;;;;;;;;;;;;4995111;28;19928;-90
2023/07/21 01:57:17;;;;;;;;;;;;;;;;;;4989639;28;19960;-89
2023/07/21 01:59:43;;;;;;;;;;;;;;;;;;4988848;28;19922;-88
2023/07/21 02:02:09;;;;;;;;;;;;;;;;;;4989506;28;19928;-90
2023/07/21 02:04:38;;;;;;;;;;;;;;;;;;5005760;28;19926;-90
2023/07/21 02:07:04;;;;;;;;;;;;;;;;;;4990280;28;19922;-90
2023/07/21 02:09:30;;;;;;;;;;;;;;;;;;4990847;28;20331;-90
2023/07/21 02:11:56;;;;;;;;;;;;;;;;;;4990776;28;19929;-89
2023/07/21 02:14:22;;;;;;;;;;;;;;;;;;4989425;28;19922;-89
2023/07/21 02:16:49;;;;;;;;;;;;;;;;;;4989987;28;19928;-90
2023/07/21 02:19:17;;;;;;;;;;;;;;;;;;4989915;28;19936;-89
2023/07/21 02:21:43;;;;;;;;;;;;;;;;;;4989662;28;19922;-88
2023/07/21 02:24:09;;;;;;;;;;;;;;;;;;4990274;28;20302;-88
2023/07/21 02:29:11;;;;;;;;;;;;;;;;;;5005602;28;20011;-88
2023/07/21 02:31:37;;;;;;;;;;;;;;;;;;4989864;28;19921;-90
2023/07/21 02:34:05;;;;;;;;;;;;;;;;;;4990789;28;19929;-90
2023/07/21 02:36:31;;;;;;;;;;;;;;;;;;4992443;28;19922;-89
2023/07/21 02:38:57;;;;;;;;;;;;;;;;;;4989784;28;19926;-90
2023/07/21 02:41:22;;;;;;;;;;;;;;;;;;4990245;28;19922;-88
2023/07/21 02:43:48;;;;;;;;;;;;;;;;;;5006265;28;19922;-89
2023/07/21 02:46:14;;;;;;;;;;;;;;;;;;4989991;28;20273;-89
2023/07/21 02:48:40;;;;;;;;;;;;;;;;;;4990618;28;19969;-90
2023/07/21 02:51:06;;;;;;;;;;;;;;;;;;4989911;28;20277;-90
2023/07/21 02:53:32;;;;;;;;;;;;;;;;;;4990000;28;19944;-89
2023/07/21 02:56:00;;;;;;;;;;;;;;;;;;4988857;28;20307;-88
2023/07/21 02:58:26;;;;;;;;;;;;;;;;;;4989430;28;19933;-89
2023/07/21 03:00:54;;;;;;;;;;;;;;;;;;4990056;28;19922;-89
2023/07/21 03:03:20;;;;;;;;;;;;;;;;;;4991908;28;19922;-90
2023/07/21 03:05:46;;;;;;;;;;;;;;;;;;4992235;28;19922;-89
2023/07/21 03:08:14;;;;;;;;;;;;;;;;;;4991416;28;19984;-90
2023/07/21 03:10:43;;;;;;;;;;;;;;;;;;4993457;28;19922;-89
2023/07/21 03:13:09;;;;;;;;;;;;;;;;;;4989491;28;20028;-89
2023/07/21 03:15:35;;;;;;;;;;;;;;;;;;4989886;28;19926;-89
2023/07/21 03:18:01;;;;;;;;;;;;;;;;;;4990363;28;19926;-89
2023/07/21 03:20:27;;;;;;;;;;;;;;;;;;4992143;28;19922;-89
2023/07/21 03:22:53;;;;;;;;;;;;;;;;;;4993253;28;19933;-90
2023/07/21 03:25:19;;;;;;;;;;;;;;;;;;4989196;28;19921;-89
2023/07/21 03:27:46;;;;;;;;;;;;;;;;;;4991667;28;19926;-90
2023/07/21 03:30:13;;;;;;;;;;;;;;;;;;4990569;28;19985;-90
2023/07/21 03:32:39;;;;;;;;;;;;;;;;;;4991163;28;19922;-90
2023/07/21 03:35:05;;;;;;;;;;;;;;;;;;5005416;28;19932;-90
2023/07/21 03:37:34;;;;;;;;;;;;;;;;;;5005695;28;19921;-89
2023/07/21 03:40:00;;;;;;;;;;;;;;;;;;4989564;28;19922;-89
2023/07/21 03:42:26;;;;;;;;;;;;;;;;;;4990106;28;19922;-90
2023/07/21 03:44:52;;;;;;;;;;;;;;;;;;4992734;28;19922;-90
2023/07/21 03:47:20;;;;;;;;;;;;;;;;;;4990175;28;19928;-90
2023/07/21 03:49:46;;;;;;;;;;;;;;;;;;4988648;28;20019;-90
2023/07/21 03:52:11;;;;;;;;;;;;;;;;;;5005961;28;19922;-91
2023/07/21 03:57:46;;;;;;;;;;;;;;;;;;5013398;28;19998;-89
2023/07/21 04:00:13;;;;;;;;;;;;;;;;;;4990058;28;19945;-90
2023/07/21 04:02:39;;;;;;;;;;;;;;;;;;4989819;28;19922;-90
2023/07/21 04:05:05;;;;;;;;;;;;;;;;;;4987443;28;19976;-90
2023/07/21 04:07:34;;;;;;;;;;;;;;;;;;5003915;28;19925;-88
2023/07/21 04:10:00;;;;;;;;;;;;;;;;;;4988473;28;20016;-91
2023/07/21 04:12:28;;;;;;;;;;;;;;;;;;4988476;28;19929;-90
2023/07/21 04:14:55;;;;;;;;;;;;;;;;;;5004184;28;19922;-90
2023/07/21 04:17:21;;;;;;;;;;;;;;;;;;4990932;28;19922;-86
2023/07/21 04:19:47;;;;;;;;;;;;;;;;;;4986486;28;19921;-89
2023/07/21 04:22:16;;;;;;;;;;;;;;;;;;4988634;28;20006;-89
2023/07/21 04:24:42;;;;;;;;;;;;;;;;;;5005209;28;19945;-89
2023/07/21 04:27:09;;;;;;;;;;;;;;;;;;4988393;28;19922;-89
2023/07/21 04:29:35;;;;;;;;;;;;;;;;;;5005485;28;19933;-89
2023/07/21 04:32:04;;;;;;;;;;;;;;;;;;4989902;28;19984;-90
2023/07/21 04:34:31;;;;;;;;;;;;;;;;;;5002521;28;19922;-90
2023/07/21 04:36:57;;;;;;;;;;;;;;;;;;4989055;28;19922;-91
2023/07/21 04:39:23;;;;;;;;;;;;;;;;;;5004389;28;20372;-89
2023/07/21 04:41:49;;;;;;;;;;;;;;;;;;4988464;28;20308;-90
2023/07/21 04:44:18;;;;;;;;;;;;;;;;;;4987210;28;19925;-90
2023/07/21 04:46:48;;;;;;;;;;;;;;;;;;5004051;28;19921;-88
2023/07/21 04:49:14;;;;;;;;;;;;;;;;;;4986772;28;20188;-89
2023/07/21 04:51:40;;;;;;;;;;;;;;;;;;4986316;28;19921;-88
2023/07/21 04:54:07;;;;;;;;;;;;;;;;;;4986222;28;19972;-88
2023/07/21 04:56:33;;;;;;;;;;;;;;;;;;4985832;28;19921;-89
2023/07/21 04:59:00;;;;;;;;;;;;;;;;;;5003145;28;19936;-89
2023/07/21 05:01:26;;;;;;;;;;;;;;;;;;4985863;28;20012;-90
2023/07/21 05:03:52;;;;;;;;;;;;;;;;;;5000268;28;19921;-88
2023/07/21 05:06:18;;;;;;;;;;;;;;;;;;4986978;28;19922;-89
2023/07/21 05:08:44;;;;;;;;;;;;;;;;;;4987127;28;19929;-90
2023/07/21 05:11:09;;;;;;;;;;;;;;;;;;4985665;28;19922;-89
2023/07/21 05:13:37;;;;;;;;;;;;;;;;;;5004068;28;20455;-90
2023/07/21 05:18:43;;;;;;;;;;;;;;;;;;5002806;28;19926;-90
2023/07/21 05:21:09;;;;;;;;;;;;;;;;;;4987073;28;20008;-90
2023/07/21 05:23:35;;;;;;;;;;;;;;;;;;4986443;28;19945;-88
2023/07/21 05:26:01;;;;;;;;;;;;;;;;;;4985317;28;19913;-89
2023/07/21 05:28:27;;;;;;;;;;;;;;;;;;4987541;28;19982;-89
2023/07/21 05:30:53;;;;;;;;;;;;;;;;;;4985367;28;20333;-88
2023/07/21 05:33:19;;;;;;;;;;;;;;;;;;5002650;28;19973;-90
2023/07/21 05:35:45;;;;;;;;;;;;;;;;;;4987317;28;19930;-89
2023/07/21 05:38:14;;;;;;;;;;;;;;;;;;4988037;28;19933;-89
2023/07/21 05:43:36;;;;;;;;;;;;;;;;;;5004617;28;19978;-89
2023/07/21 05:46:02;;;;;;;;;;;;;;;;;;5003059;28;19946;-89
2023/07/21 05:48:28;;;;;;;;;;;;;;;;;;4987960;28;19906;-90
2023/07/21 05:50:55;;;;;;;;;;;;;;;;;;4989120;28;19921;-89
2023/07/21 05:53:21;;;;;;;;;;;;;;;;;;4986945;28;19969;-86
2023/07/21 05:55:47;;;;;;;;;;;;;;;;;;4985479;28;19929;-90
2023/07/21 05:58:13;;;;;;;;;;;;;;;;;;4988058;28;19932;-89
2023/07/21 06:00:39;;;;;;;;;;;;;;;;;;4985371;28;19926;-88
2023/07/21 06:03:05;;;;;;;;;;;;;;;;;;4989189;28;20410;-89
2023/07/21 06:05:36;;;;;;;;;;;;;;;;;;4990032;28;19922;-89
2023/07/21 06:08:05;;;;;;;;;;;;;;;;;;4990188;28;19985;-89
2023/07/21 06:10:31;;;;;;;;;;;;;;;;;;4988541;28;19928;-89
2023/07/21 06:12:57;;;;;;;;;;;;;;;;;;4989754;28;19922;-89
2023/07/21 06:15:24;;;;;;;;;;;;;;;;;;4992675;28;20008;-89
2023/07/21 06:17:52;;;;;;;;;;;;;;;;;;4992816;28;19914;-87
2023/07/21 06:20:20;;;;;;;;;;;;;;;;;;4990482;28;19929;-88
2023/07/21 06:22:47;;;;;;;;;;;;;;;;;;4991348;28;20458;-89
2023/07/21 06:25:13;;;;;;;;;;;;;;;;;;4992190;28;19921;-89
2023/07/21 06:27:47;;;;;;;;;;;;;;;;;;4992967;28;19921;-90
2023/07/21 06:30:13;;;;;;;;;;;;;;;;;;4992161;28;19928;-90
2023/07/21 06:32:42;;;;;;;;;;;;;;;;;;5008496;28;19921;-89
2023/07/21 06:35:08;;;;;;;;;;;;;;;;;;4990529;28;19922;-89
2023/07/21 06:37:38;;;;;;;;;;;;;;;;;;5010688;28;19989;-88
2023/07/21 06:40:04;;;;;;;;;;;;;;;;;;4993111;28;19933;-88
2023/07/21 06:42:31;;;;;;;;;;;;;;;;;;4994467;28;19922;-92
2023/07/21 06:45:03;;;;;;;;;;;;;;;;;;5004665;28;19922;-89
2023/07/21 06:47:29;;;;;;;;;;;;;;;;;;4993115;28;19922;-88
2023/07/21 06:49:55;;;;;;;;;;;;;;;;;;4994164;28;19929;-90
2023/07/21 06:52:30;;;;;;;;;;;;;;;;;;5011397;28;19968;-89
2023/07/21 06:54:58;;;;;;;;;;;;;;;;;;5011479;28;19922;-88
2023/07/21 06:57:40;;;;;;;;;;;;;;;;;;5014377;28;19921;-91
2023/07/21 07:00:07;;;;;;;;;;;;;;;;;;4997965;28;20016;-90
2023/07/21 07:02:47;;;;;;;;;;;;;;;;;;5007632;28;19922;-90
2023/07/21 07:05:16;;;;;;;;;;;;;;;;;;5010087;28;20395;-91
2023/07/21 07:07:42;;;;;;;;;;;;;;;;;;4992998;28;19921;-90
2023/07/21 07:10:08;;;;;;;;;;;;;;;;;;5008456;28;19932;-90
2023/07/21 07:12:36;;;;;;;;;;;;;;;;;;4992950;28;20599;-91
2023/07/21 07:15:06;;;;;;;;;;;;;;;;;;4996354;28;20327;-90
2023/07/21 07:17:53;;;;;;;;;;;;;;;;;;5009091;28;19960;-91
2023/07/21 07:20:19;;;;;;;;;;;;;;;;;;4992018;28;19930;-91
2023/07/21 07:22:45;;;;;;;;;;;;;;;;;;4992366;28;20031;-91
2023/07/21 07:25:11;;;;;;;;;;;;;;;;;;4992635;28;19988;-91
2023/07/21 07:27:37;;;;;;;;;;;;;;;;;;5009664;28;19922;-91
2023/07/21 07:30:07;;;;;;;;;;;;;;;;;;4991423;28;19922;-90
2023/07/21 07:32:34;;;;;;;;;;;;;;;;;;4973402;28;19982;-89
2023/07/21 07:35:00;;;;;;;;;;;;;;;;;;4972536;28;19930;-92
2023/07/21 07:37:26;;;;;;;;;;;;;;;;;;4988685;28;19934;-90
2023/07/21 07:39:52;;;;;;;;;;;;;;;;;;4997659;28;19926;-91
2023/07/21 07:42:19;;;;;;;;;;;;;;;;;;4989410;28;19922;-90
2023/07/21 07:44:45;;;;;;;;;;;;;;;;;;4993955;28;19921;-91
2023/07/21 07:47:11;;;;;;;;;;;;;;;;;;4993002;28;20023;-92
2023/07/21 07:49:37;;;;;;;;;;;;;;;;;;4993834;28;19928;-93
2023/07/21 07:55:07;;;;;;;;;;;;;;;;;;5016721;28;19923;-92
2023/07/21 07:57:34;;;;;;;;;;;;;;;;;;4994439;28;19925;-92
2023/07/21 08:00:00;;;;;;;;;;;;;;;;;;4994914;28;20008;-90
2023/07/21 08:02:26;;;;;;;;;;;;;;;;;;5008751;28;19922;-92
2023/07/21 08:04:52;;;;;;;;;;;;;;;;;;4994656;28;19926;-89
2023/07/21 08:10:13;;;;;;;;;;;;;;;;;;5010031;28;19926;-90
2023/07/21 08:12:39;;;;;;;;;;;;;;;;;;4992406;28;19945;-93
2023/07/21 08:15:05;;;;;;;;;;;;;;;;;;4991913;28;19932;-90
2023/07/21 08:17:31;;;;;;;;;;;;;;;;;;4992791;28;19922;-91
2023/07/21 08:19:57;;;;;;;;;;;;;;;;;;4991901;28;19922;-91
2023/07/21 08:22:23;;;;;;;;;;;;;;;;;;4993010;28;19929;-90
2023/07/21 08:24:49;;;;;;;;;;;;;;;;;;4990135;28;19922;-92
2023/07/21 08:27:15;;;;;;;;;;;;;;;;;;4975478;28;20245;-90
2023/07/21 08:29:44;;;;;;;;;;;;;;;;;;4971458;28;19937;-90
2023/07/21 08:32:10;;;;;;;;;;;;;;;;;;4989228;28;19985;-92
2023/07/21 08:34:37;;;;;;;;;;;;;;;;;;4973258;28;19922;-91
2023/07/21 08:37:03;;;;;;;;;;;;;;;;;;4972387;28;19945;-91
2023/07/21 08:39:30;;;;;;;;;;;;;;;;;;4971244;28;19926;-91
2023/07/21 08:41:56;;;;;;;;;;;;;;;;;;4972212;28;19961;-90
2023/07/21 08:44:32;;;;;;;;;;;;;;;;;;4999176;28;19921;-90
2023/07/21 08:46:58;;;;;;;;;;;;;;;;;;4989829;28;20364;-92
2023/07/21 08:49:24;;;;;;;;;;;;;;;;;;5007722;28;19922;-91
2023/07/21 08:52:13;;;;;;;;;;;;;;;;;;;;;
2023/07/21 08:54:43;;;;;;;;;;;;;;;;;;5005282;28;19922;-90
2023/07/21 08:57:09;;;;;;;;;;;;;;;;;;5003381;28;20289;-92
2023/07/21 08:59:35;;;;;;;;;;;;;;;;;;4991062;28;19980;-92
2023/07/21 09:02:01;;;;;;;;;;;;;;;;;;4993097;28;19922;-92
2023/07/21 09:04:27;;;;;;;;;;;;;;;;;;5006835;28;19953;-92
2023/07/21 09:06:55;;;;;;;;;;;;;;;;;;4986408;28;19922;-92
2023/07/21 09:09:21;;;;;;;;;;;;;;;;;;4997781;28;19961;-91
2023/07/21 09:11:47;;;;;;;;;;;;;;;;;;4975035;28;19945;-91
2023/07/21 09:14:13;;;;;;;;;;;;;;;;;;4990190;28;19905;-91
2023/07/21 09:16:39;;;;;;;;;;;;;;;;;;4988950;28;19929;-91
2023/07/21 09:19:05;;;;;;;;;;;;;;;;;;4991894;28;19936;-89
2023/07/21 09:21:32;;;;;;;;;;;;;;;;;;5006951;28;19929;-92
2023/07/21 09:23:58;;;;;;;;;;;;;;;;;;4989700;28;19922;-90
2023/07/21 09:26:24;;;;;;;;;;;;;;;;;;5005750;28;19913;-91
2023/07/21 09:28:49;;;;;;;;;;;;;;;;;;5007128;28;19975;-91
2023/07/21 09:31:16;;;;;;;;;;;;;;;;;;4992468;28;19925;-90
2023/07/21 09:33:42;;;;;;;;;;;;;;;;;;5006568;28;19913;-91
2023/07/21 09:36:08;;;;;;;;;;;;;;;;;;4989533;28;19906;-92
2023/07/21 09:38:34;;;;;;;;;;;;;;;;;;4993152;28;19926;-91
2023/07/21 09:41:00;;;;;;;;;;;;;;;;;;4993598;28;19981;-92
2023/07/21 09:43:26;;;;;;;;;;;;;;;;;;4996464;28;19937;-90
2023/07/21 09:45:52;;;;;;;;;;;;;;;;;;4990856;28;19993;-87
2023/07/21 09:48:18;;;;;;;;;;;;;;;;;;5004847;28;20331;-88
2023/07/21 09:50:44;;;;;;;;;;;;;;;;;;4988307;28;19992;-86
2023/07/21 09:53:10;;;;;;;;;;;;;;;;;;4989315;28;19929;-87
2023/07/21 09:55:36;;;;;;;;;;;;;;;;;;4990670;28;19921;-87
2023/07/21 09:58:02;;;;;;;;;;;;;;;;;;5005565;28;19980;-89
2023/07/21 10:00:33;;;;;;;;;;;;;;;;;;4991261;28;19922;-89
2023/07/21 10:02:59;;;;;;;;;;;;;;;;;;4989313;28;19981;-90
2023/07/21 10:05:25;;;;;;;;;;;;;;;;;;4996629;28;20087;-88
2023/07/21 10:07:53;;;;;;;;;;;;;;;;;;4998552;28;19925;-89
2023/07/21 10:10:19;;;;;;;;;;;;;;;;;;4994453;28;19933;-90
2023/07/21 10:12:46;;;;;;;;;;;;;;;;;;4991557;28;20012;-89
2023/07/21 10:15:12;;;;;;;;;;;;;;;;;;5009011;28;19922;-89
2023/07/21 10:17:38;;;;;;;;;;;;;;;;;;4992165;28;19946;-89
2023/07/21 10:20:05;;;;;;;;;;;;;;;;;;4991918;28;19929;-89
2023/07/21 10:22:34;;;;;;;;;;;;;;;;;;4995039;28;19921;-90
2023/07/21 10:25:04;;;;;;;;;;;;;;;;;;4984007;28;20013;-89
2023/07/21 10:27:30;;;;;;;;;;;;;;;;;;4991269;28;19941;-91
2023/07/21 10:29:56;;;;;;;;;;;;;;;;;;4988125;28;20466;-89
2023/07/21 10:32:23;;;;;;;;;;;;;;;;;;4996352;28;19921;-87
2023/07/21 10:34:53;;;;;;;;;;;;;;;;;;4990835;28;19922;-87
2023/07/21 10:37:18;;;;;;;;;;;;;;;;;;4988175;28;19922;-88
2023/07/21 10:39:44;;;;;;;;;;;;;;;;;;4986638;28;19941;-90
2023/07/21 10:42:10;;;;;;;;;;;;;;;;;;4987397;28;19922;-89
2023/07/21 10:44:37;;;;;;;;;;;;;;;;;;4988791;28;19972;-89
2023/07/21 10:47:03;;;;;;;;;;;;;;;;;;5003879;28;19921;-88
2023/07/21 10:49:29;;;;;;;;;;;;;;;;;;4988144;28;19922;-87
2023/07/21 10:51:55;;;;;;;;;;;;;;;;;;4988368;28;19926;-87
2023/07/21 10:54:24;;;;;;;;;;;;;;;;;;4987945;28;19922;-87
2023/07/21 10:56:51;;;;;;;;;;;;;;;;;;5002432;28;20450;-88
2023/07/21 10:59:18;;;;;;;;;;;;;;;;;;5002420;28;19976;-88
2023/07/21 11:01:57;;;;;;;;;;;;;;;;;;4997470;28;19972;-87
2023/07/21 11:04:23;;;;;;;;;;;;;;;;;;4986777;28;19922;-87
2023/07/21 11:06:49;;;;;;;;;;;;;;;;;;4987845;28;19922;-86
2023/07/21 11:09:16;;;;;;;;;;;;;;;;;;4987210;28;20005;-86
2023/07/21 11:11:42;;;;;;;;;;;;;;;;;;4989212;28;19929;-87
2023/07/21 11:14:10;;;;;;;;;;;;;;;;;;4985288;28;19926;-88
2023/07/21 11:16:35;;;;;;;;;;;;;;;;;;4987837;28;20410;-87
2023/07/21 11:19:02;;;;;;;;;;;;;;;;;;4986109;28;19926;-89
2023/07/21 11:21:28;;;;;;;;;;;;;;;;;;4986366;28;19921;-87
2023/07/21 11:23:54;;;;;;;;;;;;;;;;;;4988109;28;19922;-87
2023/07/21 11:26:20;;;;;;;;;;;;;;;;;;5002857;28;20020;-88
2023/07/21 11:28:47;;;;;;;;;;;;;;;;;;4987367;28;19948;-88
2023/07/21 11:31:13;;;;;;;;;;;;;;;;;;4986604;28;19928;-87
2023/07/21 11:33:40;;;;;;;;;;;;;;;;;;4986592;28;19926;-87
2023/07/21 11:36:06;;;;;;;;;;;;;;;;;;4988092;28;20012;-85
2023/07/21 11:38:31;;;;;;;;;;;;;;;;;;5003449;28;19972;-87
2023/07/21 11:41:03;;;;;;;;;;;;;;;;;;4984381;28;20069;-87
2023/07/21 11:43:38;;;;;;;;;;;;;;;;;;5001204;28;19922;-87
2023/07/21 11:46:04;;;;;;;;;;;;;;;;;;4985702;28;19928;-87
2023/07/21 11:48:30;;;;;;;;;;;;;;;;;;4985835;28;19953;-86
2023/07/21 11:50:56;;;;;;;;;;;;;;;;;;4984501;28;19925;-87
2023/07/21 11:53:22;;;;;;;;;;;;;;;;;;4985065;28;19929;-88
2023/07/21 11:55:52;;;;;;;;;;;;;;;;;;5004623;28;20351;-89
2023/07/21 11:58:19;;;;;;;;;;;;;;;;;;4987329;28;20307;-88
2023/07/21 12:01:07;;;;;;;;;;;;;;;;;;4989090;28;19922;-88
2023/07/21 12:03:33;;;;;;;;;;;;;;;;;;4986238;28;19922;-85
2023/07/21 12:05:59;;;;;;;;;;;;;;;;;;4985282;28;19933;-89
2023/07/21 12:08:26;;;;;;;;;;;;;;;;;;4985324;28;20061;-84
2023/07/21 12:10:52;;;;;;;;;;;;;;;;;;4983327;28;19928;-86
2023/07/21 12:13:18;;;;;;;;;;;;;;;;;;4984222;28;19925;-85
2023/07/21 12:15:44;;;;;;;;;;;;;;;;;;4983151;28;20004;-84
2023/07/21 12:18:10;;;;;;;;;;;;;;;;;;5002577;28;19976;-86
2023/07/21 12:20:36;;;;;;;;;;;;;;;;;;4984659;28;19926;-87
2023/07/21 12:23:11;;;;;;;;;;;;;;;;;;4986596;28;20486;-87
2023/07/21 12:25:37;;;;;;;;;;;;;;;;;;4984424;28;19996;-87
2023/07/21 12:28:05;;;;;;;;;;;;;;;;;;5000207;28;19922;-86
2023/07/21 12:30:31;;;;;;;;;;;;;;;;;;4983365;28;20550;-85
2023/07/21 12:32:57;;;;;;;;;;;;;;;;;;4984598;28;19922;-84
2023/07/21 12:35:28;;;;;;;;;;;;;;;;;;4999426;28;20373;-86
2023/07/21 12:37:54;;;;;;;;;;;;;;;;;;4982400;28;20343;-86
2023/07/21 12:40:20;;;;;;;;;;;;;;;;;;4999853;28;20013;-86
2023/07/21 12:42:46;;;;;;;;;;;;;;;;;;4999616;28;20289;-86
2023/07/21 12:45:12;;;;;;;;;;;;;;;;;;4982771;28;20016;-86
2023/07/21 12:47:38;;;;;;;;;;;;;;;;;;4982679;28;19922;-84
2023/07/21 12:50:04;;;;;;;;;;;;;;;;;;4999419;28;19972;-85
2023/07/21 12:52:30;;;;;;;;;;;;;;;;;;4983815;28;19933;-86
2023/07/21 12:54:56;;;;;;;;;;;;;;;;;;4983197;28;19926;-85
2023/07/21 12:57:22;;;;;;;;;;;;;;;;;;4982497;28;19926;-83
2023/07/21 12:59:48;;;;;;;;;;;;;;;;;;4983388;28;19989;-85
2023/07/21 13:02:17;;;;;;;;;;;;;;;;;;4982656;28;19925;-86
2023/07/21 13:04:50;;;;;;;;;;;;;;;;;;4984964;28;19933;-85
2023/07/21 13:07:16;;;;;;;;;;;;;;;;;;4982794;28;19957;-86
2023/07/21 13:09:42;;;;;;;;;;;;;;;;;;4983562;28;19921;-85
2023/07/21 13:12:08;;;;;;;;;;;;;;;;;;4989416;28;19929;-83
2023/07/21 13:14:34;;;;;;;;;;;;;;;;;;4991037;28;19921;-84
2023/07/21 13:17:03;;;;;;;;;;;;;;;;;;5005417;28;19965;-86
2023/07/21 13:19:30;;;;;;;;;;;;;;;;;;4987960;28;19972;-86
2023/07/21 13:21:56;;;;;;;;;;;;;;;;;;4988231;28;19932;-86
2023/07/21 13:24:22;;;;;;;;;;;;;;;;;;5004214;28;19953;-86
2023/07/21 13:26:48;;;;;;;;;;;;;;;;;;4986577;28;19928;-87
2023/07/21 13:29:34;;;;;;;;;;;;;;;;;;4987663;28;20008;-86
2023/07/21 13:32:00;;;;;;;;;;;;;;;;;;4985347;28;19984;-86
2023/07/21 13:37:30;;;;;;;;;;;;;;;;;;5004531;28;20288;-85
2023/07/21 13:39:56;;;;;;;;;;;;;;;;;;4985284;28;19929;-84
2023/07/21 13:42:23;;;;;;;;;;;;;;;;;;4986226;28;19928;-84
2023/07/21 13:44:54;;;;;;;;;;;;;;;;;;5002468;28;19922;-85
2023/07/21 13:47:21;;;;;;;;;;;;;;;;;;4987587;28;20459;-84
2023/07/21 13:49:48;;;;;;;;;;;;;;;;;;5004167;28;19922;-85
2023/07/21 13:52:13;;;;;;;;;;;;;;;;;;4987028;28;19921;-85
2023/07/21 13:54:40;;;;;;;;;;;;;;;;;;4985911;28;19948;-84
2023/07/21 13:57:10;;;;;;;;;;;;;;;;;;4986549;28;20025;-86
2023/07/21 13:59:36;;;;;;;;;;;;;;;;;;4988197;28;19937;-85
2023/07/21 14:02:03;;;;;;;;;;;;;;;;;;4986875;28;19922;-83
2023/07/21 14:07:17;;;;;;;;;;;;;;;;;;5003621;28;19925;-84
2023/07/21 14:09:43;;;;;;;;;;;;;;;;;;5003838;28;19921;-84
2023/07/21 14:12:08;;;;;;;;;;;;;;;;;;4984902;28;19922;-83
2023/07/21 14:17:21;;;;;;;;;;;;;;;;;;5000772;28;19922;-83
2023/07/21 14:19:48;;;;;;;;;;;;;;;;;;4986882;28;20299;-84
2023/07/21 14:22:13;;;;;;;;;;;;;;;;;;4985271;28;19922;-83
2023/07/21 14:27:44;;;;;;;;;;;;;;;;;;4994050;28;19920;-85
2023/07/21 14:30:14;;;;;;;;;;;;;;;;;;4986614;28;19922;-83
2023/07/21 14:32:39;;;;;;;;;;;;;;;;;;4985657;28;19944;-84
2023/07/21 14:35:05;;;;;;;;;;;;;;;;;;5004448;28;20368;-83
2023/07/21 14:37:31;;;;;;;;;;;;;;;;;;4989003;28;19944;-84
2023/07/21 14:39:57;;;;;;;;;;;;;;;;;;4986709;28;20292;-83
2023/07/21 14:42:23;;;;;;;;;;;;;;;;;;4985582;28;19921;-84
2023/07/21 14:44:49;;;;;;;;;;;;;;;;;;4980801;28;19928;-84
2023/07/21 14:47:24;;;;;;;;;;;;;;;;;;5000974;28;19926;-86
2023/07/21 14:50:06;;;;;;;;;;;;;;;;;;4988380;28;19929;-85
2023/07/21 14:52:35;;;;;;;;;;;;;;;;;;5005831;28;19981;-84
2023/07/21 14:55:05;;;;;;;;;;;;;;;;;;4989183;28;19922;-85
2023/07/21 14:57:31;;;;;;;;;;;;;;;;;;5004141;28;19925;-87
2023/07/21 14:59:58;;;;;;;;;;;;;;;;;;4989435;28;20447;-87
2023/07/21 15:02:24;;;;;;;;;;;;;;;;;;4988737;28;19929;-85
2023/07/21 15:04:50;;;;;;;;;;;;;;;;;;4989570;28;20012;-85
2023/07/21 15:07:19;;;;;;;;;;;;;;;;;;4988804;28;20005;-86
2023/07/21 15:09:45;;;;;;;;;;;;;;;;;;4973902;28;20281;-89
2023/07/21 15:12:13;;;;;;;;;;;;;;;;;;4986707;28;19923;-89
2023/07/21 15:14:39;;;;;;;;;;;;;;;;;;4971989;28;19922;-90
2023/07/21 15:17:05;;;;;;;;;;;;;;;;;;4971656;28;19913;-89
2023/07/21 15:19:31;;;;;;;;;;;;;;;;;;4972085;28;19965;-89
2023/07/21 15:21:57;;;;;;;;;;;;;;;;;;4972123;28;19922;-87
2023/07/21 15:24:23;;;;;;;;;;;;;;;;;;4970579;28;19977;-89
2023/07/21 15:26:49;;;;;;;;;;;;;;;;;;4971005;28;20391;-87
2023/07/21 15:29:16;;;;;;;;;;;;;;;;;;4969226;28;19929;-87
2023/07/21 15:31:42;;;;;;;;;;;;;;;;;;4969273;28;19981;-88
2023/07/21 15:37:12;;;;;;;;;;;;;;;;;;4987144;28;19964;-88
2023/07/21 15:39:40;;;;;;;;;;;;;;;;;;4969984;28;19926;-89
2023/07/21 15:42:07;;;;;;;;;;;;;;;;;;4968538;28;19993;-89
2023/07/21 15:44:33;;;;;;;;;;;;;;;;;;5003604;28;20020;-86
2023/07/21 15:46:59;;;;;;;;;;;;;;;;;;4988162;28;19929;-88
2023/07/21 15:49:25;;;;;;;;;;;;;;;;;;4988384;28;19957;-87
2023/07/21 15:51:51;;;;;;;;;;;;;;;;;;4988296;28;19973;-85
2023/07/21 15:54:18;;;;;;;;;;;;;;;;;;4985944;28;19922;-86
2023/07/21 15:56:44;;;;;;;;;;;;;;;;;;4986261;28;19976;-86
2023/07/21 15:59:10;;;;;;;;;;;;;;;;;;4989158;28;20395;-86
2023/07/21 16:01:42;;;;;;;;;;;;;;;;;;4987104;28;20375;-88
2023/07/21 16:04:09;;;;;;;;;;;;;;;;;;4987075;28;19928;-87
2023/07/21 16:17:11;;;;;;;;;;;;;;;;;;6192825;22;2026429;-88
2023/07/21 16:19:40;;;;;;;;;;;;;;;;;;6243584;22;19916;-86
2023/07/21 16:22:12;;;;;;;;;;;;;;;;;;6271340;22;19916;-86
2023/07/21 16:24:38;;;;;;;;;;;;;;;;;;6246195;22;19930;-86
2023/07/21 16:27:04;;;;;;;;;;;;;;;;;;6243543;22;19915;-87
2023/07/21 16:29:34;;;;;;;;;;;;;;;;;;6270252;22;19977;-87
2023/07/21 16:32:00;;;;;;;;;;;;;;;;;;6244185;22;19986;-84
2023/07/21 16:34:26;;;;;;;;;;;;;;;;;;6245737;22;19958;-86
2023/07/21 16:36:54;;;;;;;;;;;;;;;;;;6243020;22;19915;-87
2023/07/21 16:39:20;;;;;;;;;;;;;;;;;;6246272;22;19943;-87
2023/07/21 16:41:46;;;;;;;;;;;;;;;;;;6268092;22;19922;-86
2023/07/21 16:44:12;;;;;;;;;;;;;;;;;;6268507;22;19915;-85
2023/07/21 16:46:38;;;;;;;;;;;;;;;;;;6267282;22;20310;-85
2023/07/21 16:49:04;;;;;;;;;;;;;;;;;;6267342;22;19915;-86
2023/07/21 16:51:30;;;;;;;;;;;;;;;;;;6244928;22;19939;-86
2023/07/21 16:53:56;;;;;;;;;;;;;;;;;;6244189;22;19915;-86
2023/07/21 16:56:22;;;;;;;;;;;;;;;;;;6245024;22;19919;-85
2023/07/21 16:58:48;;;;;;;;;;;;;;;;;;6242203;22;19921;-86
2023/07/21 17:01:14;;;;;;;;;;;;;;;;;;6243541;22;19915;-85
2023/07/21 17:03:45;;;;;;;;;;;;;;;;;;6269202;22;19965;-86
2023/07/21 17:06:11;;;;;;;;;;;;;;;;;;6243325;22;19919;-87
2023/07/21 17:08:52;;;;;;;;;;;;;;;;;;6241416;22;19915;-86
2023/07/21 17:11:35;;;;;;;;;;;;;;;;;;6243465;22;19923;-86
2023/07/21 17:14:07;;;;;;;;;;;;;;;;;;6267373;22;19915;-87
2023/07/21 17:16:33;;;;;;;;;;;;;;;;;;6235493;23;19969;-86
2023/07/21 17:18:59;;;;;;;;;;;;;;;;;;6233281;23;19990;-86
2023/07/21 17:21:33;;;;;;;;;;;;;;;;;;6257508;23;19916;-86
2023/07/21 17:23:59;;;;;;;;;;;;;;;;;;6233881;23;19915;-84
2023/07/21 17:26:37;;;;;;;;;;;;;;;;;;6232975;23;19969;-85
2023/07/21 17:29:03;;;;;;;;;;;;;;;;;;6255128;23;19915;-85